CDT,Max TemperatureF,Mean TemperatureF,Min TemperatureF,Max Dew PointF,MeanDew PointF,Min DewpointF,Max Humidity, Mean Humidity, Min Humidity, Max Sea Level PressureIn, Mean Sea Level PressureIn, Min Sea Level PressureIn, Max VisibilityMiles, Mean VisibilityMiles, Min VisibilityMiles, Max Wind SpeedMPH, Mean Wind SpeedMPH, Max Gust SpeedMPH,PrecipitationIn, CloudCover, Events, WindDirDegrees
2013-10-1,85,74,63,68,65,61,94,76,50,30.12,30.06,30.02,10,10,10,9,6,,0.00,3,,64
2013-10-2,83,75,67,68,66,64,94,78,53,30.12,30.08,30.05,10,10,10,8,5,,0.00,3,,54
2013-10-3,87,75,64,68,65,62,96,73,46,30.12,30.07,30.03,10,10,8,7,5,,0.00,0,Rain,80
2013-10-4,89,78,66,71,68,66,97,76,51,30.12,30.07,30.03,10,10,10,8,5,,0.00,1,Rain,73
2013-10-5,89,78,67,72,68,66,95,75,46,30.09,30.04,29.98,10,10,10,10,5,,0.00,1,,82
2013-10-6,81,74,66,73,71,66,100,92,71,29.98,29.91,29.85,10,10,4,12,5,,0.13,4,Rain,112
2013-10-7,79,71,64,72,67,56,100,91,62,29.96,29.85,29.81,10,8,1,15,5,21,1.18,7,Rain,354
2013-10-8,81,69,57,68,63,53,86,76,66,30.04,29.98,29.93,10,10,10,13,7,,0.00,5,,24
2013-10-9,73,66,60,62,60,58,97,84,69,30.16,30.10,30.04,10,10,10,13,8,,0.00,5,,44
2013-10-10,81,68,56,63,60,56,97,77,50,30.14,30.08,30.03,10,10,10,8,2,,0.00,0,,4
2013-10-11,83,70,58,64,60,57,100,80,43,30.09,30.03,29.99,10,9,2,8,2,,0.00,0,,311
2013-10-12,84,72,61,64,61,57,96,73,41,30.09,30.05,30.01,10,10,9,10,4,,0.00,2,,335
2013-10-13,84,70,57,62,59,56,93,68,40,30.17,30.11,30.07,10,10,10,9,4,,0.00,0,,352
2013-10-14,82,70,61,64,62,60,96,78,54,30.17,30.11,30.06,10,10,10,17,8,21,0.00,1,,38
2013-10-15,73,66,60,64,62,60,100,86,71,30.11,30.06,30.01,10,10,10,8,5,,0.00,4,,30
2013-10-16,81,70,58,65,61,58,97,79,50,30.06,30.00,29.95,10,10,6,6,4,,0.00,0,,56
2013-10-17,84,72,61,72,68,60,100,89,56,29.99,29.94,29.89,10,10,7,12,4,,0.00,7,Rain,313
2013-10-18,72,68,64,68,65,63,100,89,75,30.02,29.97,29.93,10,10,10,8,6,,0.00,7,,360
2013-10-19,73,67,62,64,61,57,100,80,63,30.01,29.97,29.94,10,10,10,12,6,,0.00,6,,347
2013-10-20,75,65,55,60,56,55,96,75,49,30.06,30.02,29.99,10,10,10,8,5,,0.00,1,,15
2013-10-21,73,64,56,64,60,53,94,81,69,30.09,30.03,29.98,10,10,10,7,4,,0.00,3,,18
2013-10-22,73,67,60,66,63,54,100,91,63,30.01,29.96,29.88,10,9,6,10,3,,0.03,3,Rain,352
2013-10-23,72,62,52,53,45,37,90,61,28,30.13,30.02,29.93,10,10,10,13,8,21,0.00,0,,312
2013-10-24,75,58,43,52,44,40,92,66,32,30.25,30.18,30.12,10,10,10,6,3,,0.00,0,,323
2013-10-25,65,56,44,49,38,27,95,58,26,30.39,30.31,30.20,10,10,10,14,7,,0.00,0,,342
2013-10-26,68,52,37,44,36,32,87,60,28,30.31,30.26,30.18,10,10,10,7,4,,0.00,0,,14
2013-10-27,74,58,42,55,47,40,93,69,40,30.21,30.16,30.12,10,10,9,5,2,,0.00,1,,20
2013-10-28,79,66,52,56,53,51,96,70,37,30.26,30.20,30.14,10,10,10,6,2,,0.00,2,,57
2013-10-29,81,67,53,58,54,50,94,71,38,30.31,30.26,30.22,10,10,10,7,3,,0.00,0,,65
2013-10-30,82,67,53,58,55,51,95,69,35,30.30,30.22,30.15,10,10,10,9,3,,0.00,0,,82
2013-10-31,81,70,58,70,65,54,100,82,52,30.13,30.00,29.92,10,9,2,20,8,25,0.07,5,Rain,157